Time;durP1;ratioP1;P1;durP2;ratioP2;P2;SDS_P1;SDS_P2;PMS_P1;PMS_P2;Temp;Humidity;BMP_temperature;BMP_pressure;BME280_temperature;BME280_humidity;BME280_pressure;Samples;Min_cycle;Max_cycle;Signal;HPM_P1;HPM_P2
2022/05/23 00:01:08;;;;;;;6.93;4.45;;;;;;;;;;6314855;28;20054;-82
2022/05/23 00:04:10;;;;;;;7.00;4.15;;;;;;;;;;6304267;28;20071;-82
2022/05/23 00:07:42;;;;;;;7.95;4.70;;;;;;;;;;6290902;28;20049;-82
2022/05/23 00:10:44;;;;;;;5.53;4.20;;;;;;;;;;6286039;28;20513;-82
2022/05/23 00:13:46;;;;;;;7.53;4.28;;;;;;;;;;6289857;28;20195;-82
2022/05/23 00:16:50;;;;;;;5.47;3.95;;;;;;;;;;6291330;28;20079;-82
2022/05/23 00:19:51;;;;;;;7.57;5.15;;;;;;;;;;6290784;28;20056;-82
2022/05/23 00:22:55;;;;;;;5.72;4.30;;;;;;;;;;6288627;28;20079;-82
2022/05/23 00:25:56;;;;;;;7.28;4.40;;;;;;;;;;6289309;28;20055;-80
2022/05/23 00:28:58;;;;;;;5.70;4.28;;;;;;;;;;6313485;28;20103;-82
2022/05/23 00:35:21;;;;;;;5.78;4.18;;;;;;;;;;6332481;28;20239;-82
2022/05/23 00:38:24;;;;;;;5.13;3.92;;;;;;;;;;6321600;28;20798;-82
2022/05/23 00:44:58;;;;;;;6.00;4.70;;;;;;;;;;6291518;28;20115;-81
2022/05/23 00:48:00;;;;;;;6.78;4.10;;;;;;;;;;6314180;28;20040;-82
2022/05/23 00:51:11;;;;;;;6.53;4.20;;;;;;;;;;6322592;28;20092;-81
2022/05/23 00:54:14;;;;;;;5.50;4.15;;;;;;;;;;6343060;28;20130;-83
2022/05/23 00:57:21;;;;;;;8.07;4.50;;;;;;;;;;6305507;28;20111;-82
2022/05/23 01:00:23;;;;;;;6.53;4.47;;;;;;;;;;6283010;28;20040;-83
2022/05/23 01:03:25;;;;;;;6.63;4.70;;;;;;;;;;6304758;28;20047;-82
2022/05/23 01:06:27;;;;;;;6.82;4.82;;;;;;;;;;6323677;28;20048;-82
2022/05/23 01:09:30;;;;;;;7.25;4.10;;;;;;;;;;6323328;28;20120;-82
2022/05/23 01:12:32;;;;;;;12.45;4.80;;;;;;;;;;6339670;28;20046;-82
2022/05/23 01:15:34;;;;;;;6.47;4.40;;;;;;;;;;6298816;28;20036;-82
2022/05/23 01:18:36;;;;;;;7.05;4.90;;;;;;;;;;6323271;28;20035;-82
2022/05/23 01:21:57;;;;;;;9.55;4.93;;;;;;;;;;6323477;28;20065;-81
2022/05/23 01:25:17;;;;;;;5.88;4.60;;;;;;;;;;6323810;28;20128;-82
2022/05/23 01:28:19;;;;;;;6.72;4.18;;;;;;;;;;6323204;28;20134;-83
2022/05/23 01:31:21;;;;;;;7.70;5.80;;;;;;;;;;6281440;28;20047;-83
2022/05/23 01:34:24;;;;;;;7.50;5.03;;;;;;;;;;6295820;28;20047;-82
2022/05/23 01:37:31;;;;;;;7.65;4.80;;;;;;;;;;6303062;28;20123;-83
2022/05/23 01:40:47;;;;;;;7.30;4.80;;;;;;;;;;6290228;28;20051;-82
2022/05/23 01:43:55;;;;;;;5.93;4.43;;;;;;;;;;6313887;28;20121;-81
2022/05/23 01:47:15;;;;;;;6.88;4.70;;;;;;;;;;6291005;28;20083;-81
2022/05/23 01:50:30;;;;;;;5.63;4.80;;;;;;;;;;6308187;28;20480;-82
2022/05/23 01:53:38;;;;;;;6.30;4.78;;;;;;;;;;6311112;28;20501;-82
2022/05/23 01:56:41;;;;;;;;;;;;;;;;;;6295572;28;20115;-82
2022/05/23 02:03:15;;;;;;;6.53;4.82;;;;;;;;;;6292272;28;20047;-83
2022/05/23 02:06:19;;;;;;;;;;;;;;;;;;6306306;28;20586;-82
2022/05/23 02:09:28;;;;;;;8.13;4.93;;;;;;;;;;6301413;28;19920;-82
2022/05/23 02:12:39;;;;;;;7.38;4.80;;;;;;;;;;6288441;28;20047;-82
2022/05/23 02:15:44;;;;;;;11.23;5.05;;;;;;;;;;6313398;28;20036;-81
2022/05/23 02:19:06;;;;;;;10.18;4.80;;;;;;;;;;6297365;28;20052;-82
2022/05/23 02:22:08;;;;;;;9.10;4.65;;;;;;;;;;6287712;28;20102;-82
2022/05/23 02:25:10;;;;;;;5.90;4.93;;;;;;;;;;6286351;28;20085;-83
2022/05/23 02:28:12;;;;;;;5.45;4.60;;;;;;;;;;6285153;28;20044;-82
2022/05/23 02:31:17;;;;;;;7.40;5.03;;;;;;;;;;6286567;28;20049;-82
2022/05/23 02:34:28;;;;;;;7.05;4.60;;;;;;;;;;6313083;28;20048;-82
2022/05/23 02:37:31;;;;;;;7.03;5.17;;;;;;;;;;6290212;28;20082;-82
2022/05/23 02:40:33;;;;;;;7.25;5.32;;;;;;;;;;6289786;28;20048;-82
2022/05/23 02:43:35;;;;;;;7.05;5.78;;;;;;;;;;6315033;28;20067;-82
2022/05/23 02:46:38;;;;;;;8.10;5.18;;;;;;;;;;6317171;28;20051;-83
2022/05/23 02:49:45;;;;;;;5.95;5.00;;;;;;;;;;6316464;28;20055;-83
2022/05/23 02:52:56;;;;;;;7.88;4.95;;;;;;;;;;6303333;28;20461;-83
2022/05/23 02:56:16;;;;;;;6.45;4.40;;;;;;;;;;6316682;28;20517;-83
2022/05/23 02:59:17;;;;;;;9.10;5.35;;;;;;;;;;6294564;28;20052;-83
2022/05/23 03:05:44;;;;;;;7.22;5.10;;;;;;;;;;6312647;28;20052;-83
2022/05/23 03:08:46;;;;;;;7.15;4.68;;;;;;;;;;6316838;28;20040;-83
2022/05/23 03:11:48;;;;;;;7.10;4.75;;;;;;;;;;6293433;28;20059;-83
2022/05/23 03:14:55;;;;;;;7.57;4.60;;;;;;;;;;6286322;28;20040;-84
2022/05/23 03:17:57;;;;;;;6.00;5.00;;;;;;;;;;6290881;28;20040;-83
2022/05/23 03:21:02;;;;;;;8.63;5.27;;;;;;;;;;6317930;28;20048;-83
2022/05/23 03:27:25;;;;;;;7.47;5.30;;;;;;;;;;6295928;28;20063;-83
2022/05/23 03:30:33;;;;;;;8.93;5.80;;;;;;;;;;6307827;28;20045;-83
2022/05/23 03:33:35;;;;;;;9.15;5.50;;;;;;;;;;6292923;28;20043;-83
2022/05/23 03:36:37;;;;;;;7.53;5.60;;;;;;;;;;6294574;28;20040;-82
2022/05/23 03:39:38;;;;;;;7.50;5.47;;;;;;;;;;6292799;28;20048;-83
2022/05/23 03:42:41;;;;;;;8.68;5.50;;;;;;;;;;6317628;28;20044;-82
2022/05/23 03:45:43;;;;;;;7.57;5.70;;;;;;;;;;6312858;28;20040;-83
2022/05/23 03:48:47;;;;;;;7.70;5.28;;;;;;;;;;6293266;28;20060;-83
2022/05/23 03:51:48;;;;;;;7.78;5.30;;;;;;;;;;6292172;28;20074;-80
2022/05/23 03:54:50;;;;;;;10.43;5.28;;;;;;;;;;6310489;28;20036;-83
2022/05/23 03:57:52;;;;;;;6.97;5.47;;;;;;;;;;6309244;28;20110;-83
2022/05/23 04:01:11;;;;;;;7.95;5.35;;;;;;;;;;6308392;28;20182;-83
2022/05/23 04:04:12;;;;;;;7.80;6.65;;;;;;;;;;6303453;28;20047;-82
2022/05/23 04:07:23;;;;;;;7.75;6.72;;;;;;;;;;6302208;28;20039;-82
2022/05/23 04:10:40;;;;;;;8.57;6.57;;;;;;;;;;6298414;28;20041;-82
2022/05/23 04:13:47;;;;;;;7.40;5.97;;;;;;;;;;6291242;28;20040;-82
2022/05/23 04:16:49;;;;;;;7.63;5.13;;;;;;;;;;6292581;28;20494;-82
2022/05/23 04:19:51;;;;;;;5.88;5.18;;;;;;;;;;6281408;28;20080;-82
2022/05/23 04:22:57;;;;;;;5.80;4.93;;;;;;;;;;6272120;28;20121;-82
2022/05/23 04:26:06;;;;;;;6.82;5.18;;;;;;;;;;6289379;28;20051;-81
2022/05/23 04:29:10;;;;;;;7.82;6.28;;;;;;;;;;6288830;28;20418;-82
2022/05/23 04:35:32;;;;;;;7.72;5.85;;;;;;;;;;6291498;28;20041;-83
2022/05/23 04:38:36;;;;;;;7.68;6.43;;;;;;;;;;6290064;28;20662;-83
2022/05/23 04:41:39;;;;;;;9.07;6.03;;;;;;;;;;6289536;28;20036;-83
2022/05/23 04:44:41;;;;;;;8.05;6.00;;;;;;;;;;6296611;28;20040;-83
2022/05/23 04:51:07;;;;;;;9.10;5.78;;;;;;;;;;6287820;28;20064;-83
2022/05/23 04:54:14;;;;;;;7.95;5.80;;;;;;;;;;6273119;28;20040;-82
2022/05/23 04:57:18;;;;;;;6.88;5.47;;;;;;;;;;6265713;28;20037;-84
2022/05/23 05:00:21;;;;;;;8.30;5.65;;;;;;;;;;6279002;28;20040;-83
2022/05/23 05:03:29;;;;;;;8.40;5.20;;;;;;;;;;6283435;28;20052;-83
2022/05/23 05:06:32;;;;;;;8.90;5.20;;;;;;;;;;6291940;28;20036;-83
2022/05/23 05:09:34;;;;;;;6.38;5.07;;;;;;;;;;6290064;28;20044;-84
2022/05/23 05:12:39;;;;;;;6.72;5.05;;;;;;;;;;6289359;28;20051;-84
2022/05/23 05:15:43;;;;;;;8.60;5.65;;;;;;;;;;6274916;28;20121;-83
2022/05/23 05:18:55;;;;;;;9.37;5.60;;;;;;;;;;6285054;28;20779;-84
2022/05/23 05:22:29;;;;;;;6.72;5.40;;;;;;;;;;6341943;28;20039;-83
2022/05/23 05:25:42;;;;;;;6.60;5.32;;;;;;;;;;6315732;28;20044;-83
2022/05/23 05:28:52;;;;;;;8.93;5.57;;;;;;;;;;6267753;28;20666;-83
2022/05/23 05:32:06;;;;;;;9.43;5.93;;;;;;;;;;6274980;28;20071;-83
2022/05/23 05:35:17;;;;;;;10.70;6.25;;;;;;;;;;6315413;28;20044;-83
2022/05/23 05:38:23;;;;;;;10.35;5.70;;;;;;;;;;6325501;28;20042;-83
2022/05/23 05:41:34;;;;;;;7.82;5.65;;;;;;;;;;6324404;28;20393;-82
2022/05/23 05:44:41;;;;;;;9.90;5.68;;;;;;;;;;6310084;28;20120;-84
2022/05/23 05:47:46;;;;;;;6.47;5.30;;;;;;;;;;6287814;28;20044;-85
2022/05/23 05:51:11;;;;;;;9.48;5.40;;;;;;;;;;6258305;28;20044;-85
2022/05/23 05:54:30;;;;;;;13.50;6.30;;;;;;;;;;6289256;28;20131;-84
2022/05/23 05:57:41;;;;;;;7.93;5.43;;;;;;;;;;6274663;28;20425;-84
2022/05/23 06:00:43;;;;;;;6.20;5.25;;;;;;;;;;6258213;28;20091;-84
2022/05/23 06:03:45;;;;;;;8.60;5.55;;;;;;;;;;6305661;28;20067;-84
2022/05/23 06:14:19;;;;;;;9.50;5.30;;;;;;;;;;6210063;28;20060;-84
2022/05/23 06:17:24;;;;;;;8.00;4.93;;;;;;;;;;6280025;28;20036;-82
2022/05/23 06:20:29;;;;;;;6.32;4.65;;;;;;;;;;6307571;28;20044;-83
2022/05/23 06:23:32;;;;;;;8.75;5.03;;;;;;;;;;6314818;28;20048;-82
2022/05/23 06:26:52;;;;;;;7.03;4.22;;;;;;;;;;6281505;28;20040;-81
2022/05/23 06:29:54;;;;;;;10.45;5.05;;;;;;;;;;6338620;28;20031;-85
2022/05/23 06:33:31;;;;;;;6.78;4.50;;;;;;;;;;6316099;28;20044;-82
2022/05/23 06:36:41;;;;;;;6.57;4.57;;;;;;;;;;6328509;28;20040;-81
2022/05/23 06:39:43;;;;;;;5.82;4.38;;;;;;;;;;6328468;28;20060;-81
2022/05/23 06:43:04;;;;;;;6.13;4.32;;;;;;;;;;6329699;28;20044;-82
2022/05/23 06:46:22;;;;;;;6.57;4.80;;;;;;;;;;6319952;28;20044;-83
2022/05/23 06:49:44;;;;;;;6.75;3.97;;;;;;;;;;6266439;28;20493;-83
2022/05/23 06:52:49;;;;;;;6.28;4.25;;;;;;;;;;6303056;28;20068;-81
2022/05/23 06:56:12;;;;;;;7.53;4.40;;;;;;;;;;6344254;28;20048;-83
2022/05/23 06:59:18;;;;;;;6.95;4.45;;;;;;;;;;6299231;28;20055;-81
2022/05/23 07:02:20;;;;;;;5.15;4.22;;;;;;;;;;6317444;28;20101;-82
2022/05/23 07:12:19;;;;;;;7.15;4.35;;;;;;;;;;6298350;28;20043;-81
2022/05/23 07:15:35;;;;;;;6.80;4.25;;;;;;;;;;6321274;28;20521;-83
2022/05/23 07:18:38;;;;;;;7.07;4.60;;;;;;;;;;6302064;28;20072;-84
2022/05/23 07:21:48;;;;;;;6.60;4.32;;;;;;;;;;6318048;28;20401;-82
2022/05/23 07:24:53;;;;;;;7.00;4.68;;;;;;;;;;6300476;28;20044;-82
2022/05/23 07:27:57;;;;;;;5.18;4.35;;;;;;;;;;6312263;28;20081;-83
2022/05/23 07:31:00;;;;;;;6.18;4.70;;;;;;;;;;6305360;28;20037;-81
2022/05/23 07:34:03;;;;;;;6.90;4.60;;;;;;;;;;6290612;28;20055;-82
2022/05/23 07:37:05;;;;;;;8.25;4.78;;;;;;;;;;6291168;28;20386;-82
2022/05/23 07:40:08;;;;;;;6.30;4.90;;;;;;;;;;6289219;28;20045;-81
2022/05/23 07:43:19;;;;;;;6.85;4.50;;;;;;;;;;6291766;28;20037;-81
2022/05/23 07:46:21;;;;;;;7.03;4.63;;;;;;;;;;6308178;28;20429;-83
2022/05/23 07:49:26;;;;;;;8.93;4.63;;;;;;;;;;6290814;28;20130;-81
2022/05/23 08:00:31;;;;;;;7.03;4.95;;;;;;;;;;6276345;28;20049;-83
2022/05/23 08:02:55;;;;;;;8.32;5.00;;;;;;;;;;6267601;28;20257;-83
2022/05/23 08:05:59;;;;;;;6.75;5.03;;;;;;;;;;6274218;28;20054;-83
2022/05/23 08:09:01;;;;;;;10.45;5.65;;;;;;;;;;6291842;28;20044;-82
2022/05/23 08:12:04;;;;;;;7.10;5.18;;;;;;;;;;6280840;28;20036;-81
2022/05/23 08:15:08;;;;;;;8.38;4.72;;;;;;;;;;6316688;28;20044;-81
2022/05/23 08:18:11;;;;;;;6.20;5.13;;;;;;;;;;6294721;28;20417;-81
2022/05/23 08:21:20;;;;;;;7.65;4.72;;;;;;;;;;6288998;28;20051;-84
2022/05/23 08:24:24;;;;;;;8.57;5.10;;;;;;;;;;6296740;28;20505;-83
2022/05/23 08:27:26;;;;;;;6.82;4.82;;;;;;;;;;6298489;28;20044;-82
2022/05/23 08:30:28;;;;;;;6.00;4.80;;;;;;;;;;6296871;28;20059;-82
2022/05/23 08:33:41;;;;;;;6.68;5.10;;;;;;;;;;6313094;28;20497;-82
2022/05/23 08:36:58;;;;;;;7.10;5.50;;;;;;;;;;6322314;28;20040;-80
2022/05/23 08:40:04;;;;;;;7.93;5.22;;;;;;;;;;6321838;28;20043;-82
2022/05/23 08:43:07;;;;;;;;;;;;;;;;;;6301110;28;20492;-83
2022/05/23 08:46:30;;;;;;;7.18;5.25;;;;;;;;;;6297474;28;19997;-81
2022/05/23 08:50:00;;;;;;;9.77;5.90;;;;;;;;;;6285751;28;20540;-83
2022/05/23 08:53:11;;;;;;;6.47;5.28;;;;;;;;;;6289501;28;20131;-82
2022/05/23 08:56:41;;;;;;;10.02;5.63;;;;;;;;;;6275414;28;20041;-81
2022/05/23 08:59:50;;;;;;;8.82;5.43;;;;;;;;;;6285197;28;20047;-80
2022/05/23 09:03:07;;;;;;;6.70;4.80;;;;;;;;;;6252170;28;20040;-81
2022/05/23 09:06:26;;;;;;;7.05;4.85;;;;;;;;;;6322713;28;20149;-81
2022/05/23 09:09:31;;;;;;;7.18;5.53;;;;;;;;;;6315048;28;20058;-81
2022/05/23 09:12:32;;;;;;;7.97;5.85;;;;;;;;;;6296291;28;20048;-83
2022/05/23 09:15:34;;;;;;;6.85;5.47;;;;;;;;;;6315390;28;20105;-80
2022/05/23 09:18:43;;;;;;;6.32;5.05;;;;;;;;;;6315253;28;20122;-82
2022/05/23 09:25:25;;;;;;;7.13;4.93;;;;;;;;;;6207525;28;20909;-83
2022/05/23 09:28:44;;;;;;;8.80;5.68;;;;;;;;;;6311884;28;20063;-83
2022/05/23 09:32:06;;;;;;;8.85;5.30;;;;;;;;;;6313463;28;20067;-81
2022/05/23 09:35:26;;;;;;;6.13;5.18;;;;;;;;;;6296430;28;20052;-81
2022/05/23 09:38:32;;;;;;;8.55;5.00;;;;;;;;;;6314475;28;20044;-82
2022/05/23 09:48:59;;;;;;;6.05;4.45;;;;;;;;;;6296198;28;20054;-80
2022/05/23 09:52:25;;;;;;;6.82;4.47;;;;;;;;;;6312880;28;20052;-80
2022/05/23 09:55:33;;;;;;;8.05;4.63;;;;;;;;;;6311573;28;20471;-79
2022/05/23 09:58:35;;;;;;;5.07;4.03;;;;;;;;;;6338805;28;20048;-82
2022/05/23 10:01:37;;;;;;;7.15;4.80;;;;;;;;;;6321169;28;20043;-79
2022/05/23 10:04:45;;;;;;;6.53;4.35;;;;;;;;;;6311022;28;20056;-80
2022/05/23 10:07:50;;;;;;;9.73;4.40;;;;;;;;;;6298110;28;20040;-80
2022/05/23 10:10:55;;;;;;;7.13;4.40;;;;;;;;;;6314510;28;20101;-81
2022/05/23 10:14:02;;;;;;;7.93;4.43;;;;;;;;;;6313198;28;20109;-83
2022/05/23 10:17:06;;;;;;;4.57;3.88;;;;;;;;;;6315440;28;20447;-82
2022/05/23 10:20:39;;;;;;;5.10;4.13;;;;;;;;;;6282617;28;20052;-81
2022/05/23 10:23:58;;;;;;;6.05;4.05;;;;;;;;;;6288904;28;20044;-81
2022/05/23 10:27:06;;;;;;;4.80;4.35;;;;;;;;;;6282479;28;20051;-83
2022/05/23 10:30:09;;;;;;;6.03;4.25;;;;;;;;;;6307652;28;20067;-83
2022/05/23 10:33:13;;;;;;;4.88;4.03;;;;;;;;;;6316833;28;20052;-80
2022/05/23 10:36:23;;;;;;;6.05;4.13;;;;;;;;;;6314912;28;20056;-82
2022/05/23 10:43:19;;;;;;;3.50;3.20;;;;;;;;;;6313664;28;20050;-82
2022/05/23 10:46:22;;;;;;;5.00;3.40;;;;;;;;;;6306346;28;20052;-82
2022/05/23 10:49:24;;;;;;;;;;;;;;;;;;6304310;28;20056;-83
2022/05/23 10:52:53;;;;;;;6.32;3.40;;;;;;;;;;6289141;28;19927;-83
2022/05/23 10:56:17;;;;;;;12.13;3.67;;;;;;;;;;6296660;28;20048;-83
2022/05/23 10:59:31;;;;;;;6.13;4.10;;;;;;;;;;6297781;28;20098;-82
2022/05/23 11:03:10;;;;;;;5.53;3.60;;;;;;;;;;6296538;28;20051;-82
2022/05/23 11:06:28;;;;;;;5.68;3.60;;;;;;;;;;6313266;28;20053;-83
2022/05/23 11:09:33;;;;;;;4.78;3.88;;;;;;;;;;6298000;28;20043;-81
2022/05/23 11:12:54;;;;;;;8.80;4.20;;;;;;;;;;6296356;28;20091;-84
2022/05/23 11:16:18;;;;;;;5.05;4.32;;;;;;;;;;6314236;28;20066;-81
2022/05/23 11:19:50;;;;;;;6.50;4.60;;;;;;;;;;6299474;28;20067;-82
2022/05/23 11:23:10;;;;;;;7.03;4.25;;;;;;;;;;6291938;28;20068;-83
2022/05/23 11:26:23;;;;;;;6.05;5.13;;;;;;;;;;6310526;28;20045;-84
2022/05/23 11:36:34;;;;;;;6.13;4.25;;;;;;;;;;6298470;28;20049;-85
2022/05/23 11:39:42;;;;;;;6.47;3.97;;;;;;;;;;6291716;28;20090;-85
2022/05/23 11:43:00;;;;;;;6.47;4.32;;;;;;;;;;6298299;28;20051;-82
2022/05/23 11:46:06;;;;;;;8.55;4.72;;;;;;;;;;6294543;28;20048;-83
2022/05/23 11:49:11;;;;;;;6.15;4.90;;;;;;;;;;6296557;28;20498;-83
2022/05/23 11:52:26;;;;;;;5.72;4.30;;;;;;;;;;6297554;28;20048;-82
2022/05/23 11:55:49;;;;;;;7.07;4.43;;;;;;;;;;6297886;28;20048;-83
2022/05/23 11:58:51;;;;;;;4.68;4.10;;;;;;;;;;6296814;28;20048;-82
2022/05/23 12:02:12;;;;;;;7.80;4.18;;;;;;;;;;6296409;28;20037;-82
2022/05/23 12:05:30;;;;;;;6.25;4.18;;;;;;;;;;6295136;28;20063;-81
2022/05/23 12:08:37;;;;;;;4.57;4.05;;;;;;;;;;6297985;28;20106;-82
2022/05/23 12:11:42;;;;;;;7.40;4.13;;;;;;;;;;6281027;28;20036;-80
2022/05/23 12:14:44;;;;;;;5.18;4.03;;;;;;;;;;6321831;28;20051;-82
2022/05/23 12:17:57;;;;;;;;;;;;;;;;;;6321770;28;20046;-84
2022/05/23 12:21:02;;;;;;;5.40;3.92;;;;;;;;;;6295327;28;19921;-83
2022/05/23 12:24:31;;;;;;;6.38;3.95;;;;;;;;;;6294066;28;20052;-84
2022/05/23 12:27:53;;;;;;;5.40;3.97;;;;;;;;;;6310747;28;20054;-81
2022/05/23 12:31:15;;;;;;;4.93;4.00;;;;;;;;;;6324164;28;20538;-82
2022/05/23 12:34:17;;;;;;;6.60;3.58;;;;;;;;;;6340762;28;20570;-82
2022/05/23 12:37:33;;;;;;;6.00;4.20;;;;;;;;;;6343309;28;20039;-80
2022/05/23 12:40:46;;;;;;;5.05;3.90;;;;;;;;;;6323825;28;20123;-84
2022/05/23 12:44:03;;;;;;;5.38;3.67;;;;;;;;;;6317140;28;20044;-84
2022/05/23 12:47:26;;;;;;;4.38;3.97;;;;;;;;;;6311812;28;20040;-83
2022/05/23 12:50:59;;;;;;;6.38;3.92;;;;;;;;;;6336643;28;20103;-84
2022/05/23 12:54:19;;;;;;;5.63;3.65;;;;;;;;;;6325276;28;20441;-83
2022/05/23 12:57:52;;;;;;;8.05;3.78;;;;;;;;;;6318617;28;20074;-84
2022/05/23 13:01:04;;;;;;;5.70;3.70;;;;;;;;;;6302345;28;20048;-85
2022/05/23 13:04:08;;;;;;;4.25;3.50;;;;;;;;;;6318448;28;20044;-83
2022/05/23 13:07:18;;;;;;;5.78;3.97;;;;;;;;;;6318465;28;20071;-83
2022/05/23 13:10:32;;;;;;;4.68;3.65;;;;;;;;;;6301066;28;20500;-85
2022/05/23 13:13:40;;;;;;;5.93;3.75;;;;;;;;;;6322901;28;20039;-84
2022/05/23 13:16:55;;;;;;;4.65;4.00;;;;;;;;;;6322220;28;20051;-84
2022/05/23 13:23:24;;;;;;;5.72;3.75;;;;;;;;;;6300540;28;20070;-83
2022/05/23 13:26:28;;;;;;;6.05;4.00;;;;;;;;;;6314285;28;20475;-83
2022/05/23 13:29:41;;;;;;;5.93;4.18;;;;;;;;;;6334940;28;20046;-84
2022/05/23 13:32:44;;;;;;;5.78;4.03;;;;;;;;;;6294969;28;20048;-86
2022/05/23 13:35:53;;;;;;;4.28;3.80;;;;;;;;;;6288391;28;20048;-83
2022/05/23 13:39:06;;;;;;;6.97;4.00;;;;;;;;;;6271673;28;20040;-83
2022/05/23 13:42:23;;;;;;;6.85;3.75;;;;;;;;;;6271013;28;20052;-83
2022/05/23 13:45:25;;;;;;;5.93;3.67;;;;;;;;;;6285129;28;20127;-83
2022/05/23 13:48:38;;;;;;;5.13;3.67;;;;;;;;;;6287620;28;20074;-83
2022/05/23 13:51:44;;;;;;;7.97;4.10;;;;;;;;;;6284961;28;20063;-84
2022/05/23 13:54:52;;;;;;;6.75;3.65;;;;;;;;;;6285829;28;20053;-82
2022/05/23 13:57:59;;;;;;;7.00;3.30;;;;;;;;;;6287023;28;20041;-82
2022/05/23 14:01:17;;;;;;;5.88;3.72;;;;;;;;;;6313026;28;20105;-82
2022/05/23 14:04:23;;;;;;;5.80;3.22;;;;;;;;;;6309515;28;20079;-82
2022/05/23 14:07:29;;;;;;;5.00;3.50;;;;;;;;;;6312681;28;20177;-80
2022/05/23 14:10:44;;;;;;;4.60;2.92;;;;;;;;;;6311499;28;20418;-81
2022/05/23 14:13:46;;;;;;;5.95;3.22;;;;;;;;;;6321416;28;20051;-82
2022/05/23 14:16:56;;;;;;;6.30;3.25;;;;;;;;;;6320585;28;20047;-80
2022/05/23 14:20:29;;;;;;;5.88;3.10;;;;;;;;;;6338113;28;20115;-81
2022/05/23 14:23:33;;;;;;;4.47;3.30;;;;;;;;;;6340903;28;20047;-81
2022/05/23 14:26:35;;;;;;;3.25;2.90;;;;;;;;;;6302008;28;20433;-81
2022/05/23 14:29:37;;;;;;;4.95;2.97;;;;;;;;;;6288965;28;20151;-84
2022/05/23 14:32:38;;;;;;;5.30;3.15;;;;;;;;;;6294227;28;20623;-82
2022/05/23 14:36:17;;;;;;;7.18;3.38;;;;;;;;;;6288511;28;20052;-82
2022/05/23 14:39:28;;;;;;;7.25;3.13;;;;;;;;;;6268702;28;20122;-82
2022/05/23 14:42:36;;;;;;;4.95;3.17;;;;;;;;;;6273399;28;20036;-82
2022/05/23 14:45:56;;;;;;;5.00;3.28;;;;;;;;;;6299866;28;20064;-82
2022/05/23 14:49:18;;;;;;;5.57;3.50;;;;;;;;;;6298023;28;20058;-84
2022/05/23 14:52:34;;;;;;;6.53;3.38;;;;;;;;;;6278279;28;20095;-82
2022/05/23 14:55:54;;;;;;;5.68;3.20;;;;;;;;;;6301180;28;20110;-84
2022/05/23 15:02:20;;;;;;;5.20;3.25;;;;;;;;;;6297270;28;20032;-85
2022/05/23 15:05:22;;;;;;;7.30;3.78;;;;;;;;;;6298538;28;20042;-82
2022/05/23 15:08:26;;;;;;;5.28;4.05;;;;;;;;;;6297259;28;20051;-84
2022/05/23 15:11:34;;;;;;;7.35;4.18;;;;;;;;;;6295373;28;20078;-80
2022/05/23 15:14:36;;;;;;;8.73;3.90;;;;;;;;;;6296984;28;20040;-86
2022/05/23 15:17:38;;;;;;;4.50;3.58;;;;;;;;;;6300980;28;20046;-84
2022/05/23 15:20:40;;;;;;;8.77;4.07;;;;;;;;;;6297608;28;20045;-84
2022/05/23 15:23:43;;;;;;;9.38;4.40;;;;;;;;;;6307935;28;20064;-84
2022/05/23 15:26:46;;;;;;;5.32;3.53;;;;;;;;;;6293107;28;20053;-82
2022/05/23 15:29:48;;;;;;;6.93;3.75;;;;;;;;;;6307137;28;20043;-84
2022/05/23 15:32:51;;;;;;;6.97;4.03;;;;;;;;;;6317020;28;20078;-84
2022/05/23 15:35:53;;;;;;;6.35;4.35;;;;;;;;;;6282391;28;20052;-83
2022/05/23 15:38:55;;;;;;;6.15;3.85;;;;;;;;;;6260108;28;20530;-81
2022/05/23 15:41:57;;;;;;;5.40;3.67;;;;;;;;;;6263150;28;20057;-83
2022/05/23 15:45:04;;;;;;;7.23;4.00;;;;;;;;;;6319699;28;20124;-82
2022/05/23 15:48:08;;;;;;;7.25;4.15;;;;;;;;;;6297761;28;20061;-83
2022/05/23 15:51:09;;;;;;;7.95;4.10;;;;;;;;;;6302537;28;20041;-77
2022/05/23 15:54:12;;;;;;;7.45;4.03;;;;;;;;;;6298796;28;20325;-86
2022/05/23 15:57:15;;;;;;;8.45;4.20;;;;;;;;;;6326521;28;20043;-84
2022/05/23 16:00:20;;;;;;;7.68;4.40;;;;;;;;;;6326434;28;20130;-85
2022/05/23 16:03:30;;;;;;;5.32;4.10;;;;;;;;;;6336764;28;20051;-84
2022/05/23 16:06:36;;;;;;;8.77;4.25;;;;;;;;;;6290481;28;20040;-83
2022/05/23 16:09:37;;;;;;;8.52;4.25;;;;;;;;;;6303602;28;20048;-83
2022/05/23 16:12:50;;;;;;;5.22;4.55;;;;;;;;;;6297846;28;20044;-82
2022/05/23 16:15:54;;;;;;;7.15;4.43;;;;;;;;;;6301202;28;20055;-83
2022/05/23 16:18:56;;;;;;;7.43;4.50;;;;;;;;;;6295407;28;20045;-83
2022/05/23 16:22:04;;;;;;;4.63;4.17;;;;;;;;;;6295055;28;20048;-82
2022/05/23 16:25:06;;;;;;;8.90;4.78;;;;;;;;;;6298703;28;20443;-85
2022/05/23 16:28:14;;;;;;;6.55;4.70;;;;;;;;;;6296829;28;20452;-81
2022/05/23 16:31:19;;;;;;;8.02;4.57;;;;;;;;;;6288247;28;20571;-81
2022/05/23 16:37:42;;;;;;;6.15;4.50;;;;;;;;;;6295140;28;20040;-84
2022/05/23 16:40:43;;;;;;;7.10;4.60;;;;;;;;;;6310113;28;20051;-85
2022/05/23 16:43:45;;;;;;;8.40;5.10;;;;;;;;;;6316751;28;20458;-83
2022/05/23 16:46:47;;;;;;;6.47;4.65;;;;;;;;;;6307625;28;20068;-81
2022/05/23 16:49:49;;;;;;;4.82;4.28;;;;;;;;;;6280056;28;20041;-82
2022/05/23 16:52:51;;;;;;;7.30;4.78;;;;;;;;;;6286462;28;20060;-82
2022/05/23 16:55:53;;;;;;;8.07;5.20;;;;;;;;;;6288432;28;20083;-84
2022/05/23 16:58:58;;;;;;;8.50;4.60;;;;;;;;;;6286431;28;20465;-81
2022/05/23 17:02:02;;;;;;;8.50;4.90;;;;;;;;;;6286942;28;20044;-83
2022/05/23 17:05:06;;;;;;;7.20;5.05;;;;;;;;;;6289242;28;20048;-80
2022/05/23 17:08:11;;;;;;;9.23;5.30;;;;;;;;;;6289360;28;20056;-80
2022/05/23 17:11:13;;;;;;;;;;;;;;;;;;6292013;28;20109;-80
2022/05/23 17:14:37;;;;;;;7.05;5.55;;;;;;;;;;6265210;28;19929;-82
2022/05/23 17:17:39;;;;;;;8.52;5.53;;;;;;;;;;6275118;28;20040;-82
2022/05/23 17:20:42;;;;;;;7.72;5.65;;;;;;;;;;6285946;28;20648;-82
2022/05/23 17:23:46;;;;;;;10.87;5.77;;;;;;;;;;6287803;28;20044;-83
2022/05/23 17:26:48;;;;;;;8.05;5.43;;;;;;;;;;6281418;28;20053;-81
2022/05/23 17:29:50;;;;;;;9.35;5.95;;;;;;;;;;6282829;28;20082;-82
2022/05/23 17:32:53;;;;;;;9.90;4.38;;;;;;;;;;6287177;28;20059;-80
2022/05/23 17:35:54;;;;;;;5.90;3.63;;;;;;;;;;6295366;28;20603;-80
2022/05/23 17:38:59;;;;;;;5.60;2.35;;;;;;;;;;6270755;28;20048;-82
2022/05/23 17:42:01;;;;;;;4.97;2.30;;;;;;;;;;6285000;28;20269;-82
2022/05/23 17:45:07;;;;;;;4.07;2.60;;;;;;;;;;6275625;28;20517;-83
2022/05/23 17:48:12;;;;;;;6.00;2.50;;;;;;;;;;6293445;28;20053;-84
2022/05/23 17:51:15;;;;;;;6.35;2.70;;;;;;;;;;6273451;28;20539;-82
2022/05/23 17:54:16;;;;;;;3.88;2.30;;;;;;;;;;6290194;28;20048;-80
2022/05/23 17:57:19;;;;;;;3.15;2.40;;;;;;;;;;6289058;28;20059;-80
2022/05/23 18:00:25;;;;;;;2.88;2.15;;;;;;;;;;6288179;28;20067;-81
2022/05/23 18:03:28;;;;;;;5.10;2.47;;;;;;;;;;6287897;28;20123;-83
2022/05/23 18:06:30;;;;;;;4.95;2.50;;;;;;;;;;6295268;28;20044;-81
2022/05/23 18:09:32;;;;;;;4.60;2.25;;;;;;;;;;6295343;28;20118;-82
2022/05/23 18:12:34;;;;;;;4.03;2.40;;;;;;;;;;6297052;28;20632;-83
2022/05/23 18:19:08;;;;;;;5.38;2.70;;;;;;;;;;6293914;28;20071;-84
2022/05/23 18:22:11;;;;;;;5.05;2.65;;;;;;;;;;6277584;28;20057;-81
2022/05/23 18:25:17;;;;;;;4.85;3.10;;;;;;;;;;6316890;28;20047;-84
2022/05/23 18:28:19;;;;;;;5.63;2.90;;;;;;;;;;6315499;28;20048;-82
2022/05/23 18:31:20;;;;;;;4.97;2.63;;;;;;;;;;6290589;28;20045;-83
2022/05/23 18:34:23;;;;;;;4.60;2.65;;;;;;;;;;6291549;28;20721;-83
2022/05/23 18:37:25;;;;;;;;;;;;;;;;;;6293257;28;20171;-82
2022/05/23 18:40:27;;;;;;;4.00;2.40;;;;;;;;;;6290757;28;19924;-83
2022/05/23 18:43:30;;;;;;;5.22;3.20;;;;;;;;;;6291415;28;20040;-84
2022/05/23 18:46:32;;;;;;;;;;;;;;;;;;6293297;28;20086;-84
2022/05/23 18:49:48;;;;;;;4.22;2.60;;;;;;;;;;6292310;28;19924;-84
2022/05/23 18:52:50;;;;;;;4.53;3.00;;;;;;;;;;6291317;28;20061;-83
2022/05/23 18:55:53;;;;;;;5.57;2.97;;;;;;;;;;6291351;28;20046;-83
2022/05/23 18:58:55;;;;;;;5.07;3.50;;;;;;;;;;6292396;28;20051;-84
2022/05/23 19:01:59;;;;;;;6.28;3.83;;;;;;;;;;6290979;28;20045;-83
2022/05/23 19:05:01;;;;;;;6.60;3.78;;;;;;;;;;6292929;28;20060;-83
2022/05/23 19:08:03;;;;;;;6.78;3.72;;;;;;;;;;6269997;28;20686;-83
2022/05/23 19:11:06;;;;;;;5.73;3.90;;;;;;;;;;6287382;28;20040;-83
2022/05/23 19:14:33;;;;;;;6.35;3.80;;;;;;;;;;6297110;28;20435;-84
2022/05/23 19:17:35;;;;;;;9.52;4.20;;;;;;;;;;6298037;28;20052;-83
2022/05/23 19:20:38;;;;;;;7.45;4.47;;;;;;;;;;6311495;28;20044;-83
2022/05/23 19:23:41;;;;;;;7.45;4.80;;;;;;;;;;6299926;28;20583;-82
2022/05/23 19:26:43;;;;;;;6.25;4.70;;;;;;;;;;6315760;28;20116;-82
2022/05/23 19:29:45;;;;;;;7.07;4.70;;;;;;;;;;6317530;28;20040;-80
2022/05/23 19:32:46;;;;;;;7.88;4.90;;;;;;;;;;6313426;28;20109;-79
2022/05/23 19:35:48;;;;;;;9.38;4.57;;;;;;;;;;6291022;28;20048;-80
2022/05/23 19:38:50;;;;;;;6.00;4.17;;;;;;;;;;6285235;28;20048;-80
2022/05/23 19:41:52;;;;;;;7.32;4.22;;;;;;;;;;6288812;28;20036;-80
2022/05/23 19:44:54;;;;;;;7.40;4.53;;;;;;;;;;6309437;28;20130;-81
2022/05/23 19:47:55;;;;;;;7.40;4.47;;;;;;;;;;6293887;28;20060;-81
2022/05/23 19:50:57;;;;;;;8.27;4.78;;;;;;;;;;6291514;28;20093;-81
2022/05/23 19:53:58;;;;;;;8.63;5.15;;;;;;;;;;6290912;28;20098;-80
2022/05/23 19:57:01;;;;;;;6.85;4.63;;;;;;;;;;6293960;28;20063;-80
2022/05/23 20:00:04;;;;;;;7.10;4.68;;;;;;;;;;6316588;28;20090;-81
2022/05/23 20:09:58;;;;;;;4.95;4.28;;;;;;;;;;6291434;28;20051;-80
2022/05/23 20:13:02;;;;;;;8.10;4.78;;;;;;;;;;6292621;28;20132;-80
2022/05/23 20:16:04;;;;;;;8.07;4.68;;;;;;;;;;6291425;28;20067;-80